Airfield :
LOGIN :

Register | Disclaimer

   EN    FR    IT 

 










Legend :    VFR   Marginal VFR   IFR   Intensive IFR   Very Intensive IFR
Visi :
Ceiling :
>= 8 km
>= 3000ft
5 to 8 km
1000 to 3000 ft
1500m to 5 km
500 to 1000 ft
800 to 1500m
200 to 500 ft
< 800m
< 200 ft
Symbols :   Thunderstorms  Fog  Heavy snow  Heavy precipitations  Wind > 20 kt
SIGMETs :     Misc.  Thunderstorms  Icing  Turbulence  Mountain Waves  Volcanic Ashes






- Airport Elevation : 74 ft
- IATA code : MRS


LFML - Marseille / Marignane

CURRENT METAR :
  • 031000Z AUTO 18009KT 160V220 CAVOK 24/16 Q1010 NOSIG

EXPIRED METARs :
  • 030930Z AUTO 20008KT 160V240 9999 FEW025 24/16 Q1010 NOSIG
  • 030900Z AUTO 19006KT 140V220 9999 FEW023 23/17 Q1010 NOSIG
  • 030830Z AUTO 16006KT 120V200 9999 FEW022 23/17 Q1010 NOSIG
  • 030800Z AUTO 19006KT 9999 BKN020 22/16 Q1010 NOSIG
  • 030730Z AUTO 18005KT 140V210 9999 SCT019 22/17 Q1010 NOSIG

TAF TAF LFML
Valid from the 03 at 09:00 until the 04 at 15:00 UTC


030800Z 0309/0415 VRB03KT 9999 SCT012 TX26/0314Z TN15/0404Z
BECMG 0309/0310 18010KT
TEMPO 0321/0415 4000 SHRA BKN014 BKN030TCU
PROB40
TEMPO 0402/0415 1000 TSRA BKN010 BKN020CB
BECMG 0405/0407 16010KT
BECMG 0413/0415 27010KT
ATIS : +33 4 42 31 15 15



MET'MAP, your aeronautical weather chart ! - Copyright ORBIFLY December 2007 - Disclaimer

ORBIFLY MET'MAP TEAM :

Programming & Development : Alexandra Zaïnal
Concept & original design : Baudouin d'Aumeries
Assistance for programming : Marc-Olivier Méhu
Technical & hardware support : Manuel Goepfert

Contact : metmap@orbifly.com




SOURCES & CREDITS :

   NOAA